Time;durP1;ratioP1;P1;durP2;ratioP2;P2;SDS_P1;SDS_P2;PMS_P1;PMS_P2;Temp;Humidity;BMP_temperature;BMP_pressure;BME280_temperature;BME280_humidity;BME280_pressure;Samples;Min_cycle;Max_cycle;Signal;HPM_P1;HPM_P2
2022/11/24 00:01:19;;;;;;;7.43;6.53;;;7.00;99.90;;;;;;5073063;28;20442;-77
2022/11/24 00:03:53;;;;;;;8.93;6.77;;;7.00;99.90;;;;;;5072232;28;20465;-77
2022/11/24 00:06:22;;;;;;;9.37;6.80;;;7.00;99.90;;;;;;5074062;28;20503;-77
2022/11/24 00:08:51;;;;;;;8.73;7.17;;;6.90;99.90;;;;;;5073575;28;20947;-77
2022/11/24 00:11:21;;;;;;;8.43;6.27;;;6.90;99.90;;;;;;5072197;28;20445;-77
2022/11/24 00:13:50;;;;;;;9.90;7.57;;;6.90;99.90;;;;;;5073306;28;20483;-77
2022/11/24 00:16:20;;;;;;;8.60;7.03;;;6.90;99.90;;;;;;5073666;28;20529;-77
2022/11/24 00:18:50;;;;;;;9.07;6.43;;;6.90;99.90;;;;;;5074235;28;20471;-77
2022/11/24 00:21:20;;;;;;;10.17;6.70;;;6.80;99.90;;;;;;5073561;28;20467;-77
2022/11/24 00:23:49;;;;;;;9.57;7.70;;;6.80;99.90;;;;;;5072025;28;20473;-77
2022/11/24 00:26:20;;;;;;;8.60;7.10;;;6.80;99.90;;;;;;5073485;28;20520;-77
2022/11/24 00:28:50;;;;;;;9.00;8.10;;;6.80;99.90;;;;;;5072102;28;20444;-77
2022/11/24 00:31:20;;;;;;;10.40;7.43;;;6.70;99.90;;;;;;5073258;28;20454;-77
2022/11/24 00:33:50;;;;;;;11.20;7.30;;;6.70;99.90;;;;;;5073549;28;20876;-77
2022/11/24 00:36:20;;;;;;;9.87;7.70;;;6.70;99.90;;;;;;5071976;28;20443;-77
2022/11/24 00:38:52;;;;;;;9.40;8.10;;;6.70;99.90;;;;;;5073138;28;20946;-77
2022/11/24 00:41:22;;;;;;;10.70;8.30;;;6.70;99.90;;;;;;5071967;28;20529;-77
2022/11/24 00:43:50;;;;;;;10.63;8.53;;;6.60;99.90;;;;;;5073254;28;20454;-77
2022/11/24 00:46:19;;;;;;;10.33;9.23;;;6.60;99.90;;;;;;5072996;28;20472;-77
2022/11/24 00:48:47;;;;;;;10.83;8.97;;;6.60;99.90;;;;;;5073062;28;20474;-77
2022/11/24 00:51:17;;;;;;;10.10;8.87;;;6.60;99.90;;;;;;5071778;28;20447;-77
2022/11/24 00:53:46;;;;;;;11.17;9.37;;;6.50;99.90;;;;;;5071847;28;20460;-77
2022/11/24 00:56:14;;;;;;;11.90;9.00;;;6.50;99.90;;;;;;5072939;28;20433;-77
2022/11/24 00:58:43;;;;;;;9.80;8.80;;;6.50;99.90;;;;;;5072930;28;20441;-77
2022/11/24 01:01:14;;;;;;;10.57;9.47;;;6.50;99.90;;;;;;5072733;28;20528;-77
2022/11/24 01:03:43;;;;;;;14.90;10.00;;;6.50;99.90;;;;;;5071672;28;20506;-77
2022/11/24 01:06:14;;;;;;;10.80;9.70;;;6.40;99.90;;;;;;5072827;28;20465;-77
2022/11/24 01:08:43;;;;;;;9.40;7.60;;;6.40;99.90;;;;;;5071696;28;20842;-77
2022/11/24 01:11:13;;;;;;;12.33;10.13;;;6.40;99.90;;;;;;5072813;28;20441;-77
2022/11/24 01:13:44;;;;;;;12.00;10.07;;;6.40;99.90;;;;;;5075501;28;20453;-77
2022/11/24 01:16:18;;;;;;;17.60;11.00;;;6.40;99.90;;;;;;5076729;28;20436;-77
2022/11/24 01:18:46;;;;;;;17.97;11.13;;;6.40;99.90;;;;;;5075358;28;20458;-77
2022/11/24 01:21:15;;;;;;;12.57;10.83;;;6.40;99.90;;;;;;5076833;28;20771;-77
2022/11/24 01:23:44;;;;;;;12.93;10.87;;;6.40;99.90;;;;;;5075154;28;20560;-77
2022/11/24 01:26:15;;;;;;;12.50;11.30;;;6.40;99.90;;;;;;5076492;28;20526;-77
2022/11/24 01:28:45;;;;;;;15.03;11.57;;;6.40;99.90;;;;;;5075224;28;20438;-77
2022/11/24 01:31:15;;;;;;;13.83;11.53;;;6.40;99.90;;;;;;5075016;28;20539;-77
2022/11/24 01:33:43;;;;;;;13.80;11.57;;;6.40;99.90;;;;;;5076625;28;20536;-77
2022/11/24 01:36:12;;;;;;;18.20;12.80;;;6.40;99.90;;;;;;5076334;28;20914;-77
2022/11/24 01:38:40;;;;;;;15.23;12.60;;;6.40;99.90;;;;;;5076616;28;20441;-77
2022/11/24 01:41:12;;;;;;;18.73;12.43;;;6.40;99.90;;;;;;5076233;28;21001;-77
2022/11/24 01:43:40;;;;;;;16.13;13.20;;;6.40;99.90;;;;;;5074882;28;20822;-77
2022/11/24 01:46:17;;;;;;;16.20;12.73;;;6.40;99.90;;;;;;5076002;28;20557;-77
2022/11/24 01:48:49;;;;;;;15.57;12.77;;;6.40;99.90;;;;;;5074929;28;20857;-77
2022/11/24 01:51:20;;;;;;;14.47;12.97;;;6.40;99.90;;;;;;5076363;28;20448;-77
2022/11/24 01:53:53;;;;;;;15.23;13.67;;;6.40;99.90;;;;;;5074776;28;21084;-77
2022/11/24 01:56:21;;;;;;;14.87;13.37;;;6.40;99.90;;;;;;5076027;28;20422;-77
2022/11/24 01:58:50;;;;;;;16.97;14.57;;;6.40;99.90;;;;;;5074689;28;20443;-77
2022/11/24 02:01:20;;;;;;;18.30;14.83;;;6.50;99.90;;;;;;5074560;28;20456;-76
2022/11/24 02:03:50;;;;;;;19.50;15.13;;;6.50;99.90;;;;;;5074600;28;20469;-77
2022/11/24 02:06:22;;;;;;;18.37;14.00;;;6.50;99.90;;;;;;5074443;28;20543;-77
2022/11/24 02:08:55;;;;;;;17.93;14.40;;;6.50;99.90;;;;;;5074484;28;20461;-77
2022/11/24 02:11:26;;;;;;;19.30;14.13;;;6.50;99.90;;;;;;5074509;28;20438;-77
2022/11/24 02:13:56;;;;;;;20.97;14.37;;;6.50;99.90;;;;;;5074349;28;20599;-77
2022/11/24 02:16:26;;;;;;;21.13;14.30;;;6.50;99.90;;;;;;5075543;28;21014;-77
2022/11/24 02:18:54;;;;;;;20.20;15.60;;;6.50;99.90;;;;;;5075567;28;20801;-77
2022/11/24 02:21:22;;;;;;;19.93;14.73;;;6.50;99.90;;;;;;5075450;28;20448;-77
2022/11/24 02:23:57;;;;;;;16.40;14.40;;;6.50;99.90;;;;;;5074941;28;20464;-77
2022/11/24 02:26:41;;;;;;;18.20;14.53;;;6.50;99.90;;;;;;5074356;28;20835;-77
2022/11/24 02:29:10;;;;;;;15.27;13.83;;;6.50;99.90;;;;;;5074167;28;20436;-77
2022/11/24 02:31:40;;;;;;;16.77;14.20;;;6.50;99.90;;;;;;5075212;28;20449;-77
2022/11/24 02:34:08;;;;;;;20.40;14.63;;;6.50;99.90;;;;;;5075492;28;20487;-77
2022/11/24 02:36:36;;;;;;;16.50;14.73;;;6.50;99.90;;;;;;5073906;28;20449;-77
2022/11/24 02:39:08;;;;;;;18.60;13.63;;;6.40;99.90;;;;;;5075417;28;20433;-77
2022/11/24 02:41:39;;;;;;;20.60;14.90;;;6.40;99.90;;;;;;5073925;28;20453;-77
2022/11/24 02:44:07;;;;;;;20.40;13.43;;;6.40;99.90;;;;;;5075093;28;20469;-77
2022/11/24 02:46:35;;;;;;;19.03;14.20;;;6.40;99.90;;;;;;5074932;28;20479;-77
2022/11/24 02:49:04;;;;;;;17.00;15.30;;;6.40;99.90;;;;;;5073638;28;20996;-76
2022/11/24 02:51:33;;;;;;;18.03;13.97;;;6.40;99.90;;;;;;5074936;28;20532;-77
2022/11/24 02:54:01;;;;;;;16.83;15.03;;;6.40;99.90;;;;;;5073514;28;20886;-78
2022/11/24 02:56:29;;;;;;;18.83;14.20;;;6.40;99.90;;;;;;5074741;28;20442;-77
2022/11/24 02:58:58;;;;;;;16.87;15.03;;;6.40;99.90;;;;;;5073508;28;20449;-77
2022/11/24 03:01:27;;;;;;;18.53;15.13;;;6.40;99.90;;;;;;5073514;28;20452;-77
2022/11/24 03:03:55;;;;;;;19.60;15.00;;;6.40;99.90;;;;;;5073389;28;20469;-77
2022/11/24 03:06:23;;;;;;;17.57;15.30;;;6.30;99.90;;;;;;5073236;28;20480;-77
2022/11/24 03:08:51;;;;;;;17.67;14.43;;;6.30;99.90;;;;;;5074821;28;20778;-77
2022/11/24 03:11:19;;;;;;;19.30;15.20;;;6.30;99.90;;;;;;5073471;28;20456;-77
2022/11/24 03:13:47;;;;;;;17.80;15.20;;;6.30;99.90;;;;;;5074388;28;20460;-77
2022/11/24 03:16:16;;;;;;;18.10;15.37;;;6.30;99.90;;;;;;5073235;28;20449;-77
2022/11/24 03:18:46;;;;;;;20.30;13.67;;;6.30;99.90;;;;;;5073043;28;20439;-77
2022/11/24 03:21:14;;;;;;;21.63;15.80;;;6.30;99.90;;;;;;5073524;28;20974;-77
2022/11/24 03:23:43;;;;;;;20.80;14.60;;;6.30;99.90;;;;;;5078426;28;20453;-77
2022/11/24 03:26:13;;;;;;;19.07;14.63;;;6.20;99.90;;;;;;5074607;28;20446;-77
2022/11/24 03:28:42;;;;;;;17.77;15.17;;;6.20;99.90;;;;;;5073423;28;20438;-77
2022/11/24 03:31:10;;;;;;;22.43;15.23;;;6.20;99.90;;;;;;5074164;28;20462;-77
2022/11/24 03:33:41;;;;;;;24.17;14.77;;;6.20;99.90;;;;;;5073354;28;20518;-77
2022/11/24 03:36:10;;;;;;;17.00;14.30;;;6.20;99.90;;;;;;5074258;28;20441;-77
2022/11/24 03:38:38;;;;;;;20.00;14.20;;;6.20;99.90;;;;;;5074283;28;20444;-77
2022/11/24 03:41:06;;;;;;;19.90;14.53;;;6.20;99.90;;;;;;5072638;28;20436;-77
2022/11/24 03:43:34;;;;;;;18.23;15.27;;;6.20;99.90;;;;;;5073804;28;20500;-77
2022/11/24 03:46:10;;;;;;;18.47;14.03;;;6.20;99.90;;;;;;5072646;28;20441;-77
2022/11/24 03:48:38;;;;;;;19.07;14.73;;;6.10;99.90;;;;;;5072450;28;20512;-77
2022/11/24 03:51:08;;;;;;;17.87;14.43;;;6.10;99.90;;;;;;5072506;28;20519;-77
2022/11/24 03:53:36;;;;;;;23.63;14.97;;;6.10;99.90;;;;;;5073674;28;20988;-77
2022/11/24 03:56:05;;;;;;;20.00;15.53;;;6.10;99.90;;;;;;5073926;28;20926;-77
2022/11/24 03:58:33;;;;;;;21.10;15.60;;;6.10;99.90;;;;;;5073629;28;20808;-77
2022/11/24 04:01:02;;;;;;;21.70;17.43;;;6.10;99.90;;;;;;5073564;28;20444;-77
2022/11/24 04:03:30;;;;;;;23.37;18.33;;;6.10;99.90;;;;;;5073753;28;20463;-77
2022/11/24 04:05:58;;;;;;;25.60;18.93;;;6.10;99.90;;;;;;5072333;28;20456;-77
2022/11/24 04:08:28;;;;;;;23.07;18.83;;;6.10;99.90;;;;;;5073493;28;20464;-77
2022/11/24 04:10:56;;;;;;;23.17;16.27;;;6.00;99.90;;;;;;5073776;28;20452;-77
2022/11/24 04:13:24;;;;;;;21.97;16.47;;;6.00;99.90;;;;;;5073572;28;20480;-77
2022/11/24 04:15:53;;;;;;;24.93;18.87;;;6.00;99.90;;;;;;5072198;28;20499;-77
2022/11/24 04:18:21;;;;;;;23.10;15.90;;;6.00;99.90;;;;;;5073493;28;20469;-77
2022/11/24 04:20:50;;;;;;;20.47;17.17;;;6.00;99.90;;;;;;5072173;28;20456;-77
2022/11/24 04:23:19;;;;;;;22.50;15.83;;;6.00;99.90;;;;;;5073598;28;20479;-77
2022/11/24 04:25:48;;;;;;;24.67;15.83;;;6.00;99.90;;;;;;5073539;28;20485;-77
2022/11/24 04:28:16;;;;;;;20.33;15.40;;;6.00;99.90;;;;;;5072205;28;20473;-77
2022/11/24 04:30:44;;;;;;;22.37;14.40;;;6.00;99.90;;;;;;5073373;28;20449;-77
2022/11/24 04:33:13;;;;;;;26.53;15.83;;;6.00;99.90;;;;;;5073149;28;20998;-77
2022/11/24 04:35:41;;;;;;;20.00;15.10;;;6.00;99.90;;;;;;5071973;28;20888;-77
2022/11/24 04:38:09;;;;;;;20.30;15.50;;;6.00;99.90;;;;;;5073375;28;20936;-77
2022/11/24 04:40:38;;;;;;;23.07;16.00;;;6.00;99.90;;;;;;5073376;28;20934;-77
2022/11/24 04:43:07;;;;;;;22.73;15.97;;;6.00;99.90;;;;;;5071864;28;20464;-77
2022/11/24 04:45:35;;;;;;;21.80;16.13;;;6.00;99.90;;;;;;5071888;28;20445;-77
2022/11/24 04:48:03;;;;;;;22.13;18.40;;;6.00;99.90;;;;;;5076360;28;20469;-77
2022/11/24 04:50:31;;;;;;;24.93;19.40;;;6.00;99.90;;;;;;5077172;28;20486;-77
2022/11/24 04:53:00;;;;;;;24.30;16.80;;;6.00;99.90;;;;;;5077175;28;20508;-77
2022/11/24 04:55:28;;;;;;;25.70;19.07;;;6.00;99.90;;;;;;5077630;28;20437;-77
2022/11/24 04:57:56;;;;;;;27.10;17.47;;;6.00;99.90;;;;;;5077549;28;20488;-77
2022/11/24 05:00:25;;;;;;;21.63;14.77;;;6.00;99.90;;;;;;5077063;28;20939;-77
2022/11/24 05:02:53;;;;;;;26.37;15.60;;;6.00;99.90;;;;;;5077106;28;20467;-77
2022/11/24 05:05:21;;;;;;;21.83;15.07;;;6.00;99.90;;;;;;5075984;28;20444;-77
2022/11/24 05:07:49;;;;;;;22.23;14.57;;;6.00;99.90;;;;;;5077204;28;20982;-76
2022/11/24 05:10:36;;;;;;;20.90;14.53;;;6.00;99.90;;;;;;5078792;28;20433;-76
2022/11/24 05:13:05;;;;;;;24.60;14.53;;;6.10;99.90;;;;;;5078509;28;20465;-77
2022/11/24 05:15:37;;;;;;;23.43;14.80;;;6.10;99.90;;;;;;5082189;28;20506;-76
2022/11/24 05:18:06;;;;;;;26.83;15.30;;;6.10;99.90;;;;;;5082226;28;20434;-76
2022/11/24 05:20:35;;;;;;;25.00;17.50;;;6.10;99.90;;;;;;5078935;28;20858;-77
2022/11/24 05:23:03;;;;;;;21.50;14.07;;;6.10;99.90;;;;;;5076465;28;20511;-77
2022/11/24 05:25:32;;;;;;;21.60;15.07;;;6.10;99.90;;;;;;5077378;28;20526;-77
2022/11/24 05:28:01;;;;;;;19.83;13.00;;;6.10;99.90;;;;;;5076657;28;20470;-77
2022/11/24 05:30:29;;;;;;;22.20;14.73;;;6.10;99.90;;;;;;5075149;28;20453;-77
2022/11/24 05:32:59;;;;;;;22.47;14.40;;;6.10;99.90;;;;;;5075174;28;20810;-77
2022/11/24 05:35:27;;;;;;;20.30;14.20;;;6.10;99.90;;;;;;5075580;28;20479;-77
2022/11/24 05:37:55;;;;;;;23.87;14.73;;;6.10;99.90;;;;;;5075012;28;20510;-77
2022/11/24 05:40:24;;;;;;;28.40;20.00;;;6.10;99.90;;;;;;5076267;28;20473;-77
2022/11/24 05:42:52;;;;;;;20.50;14.37;;;6.10;99.90;;;;;;5076184;28;20457;-77
2022/11/24 05:45:21;;;;;;;25.47;14.90;;;6.10;99.90;;;;;;5074936;28;20454;-77
2022/11/24 05:47:50;;;;;;;19.90;14.80;;;6.20;99.90;;;;;;5074837;28;20473;-77
2022/11/24 05:50:22;;;;;;;24.00;15.10;;;6.10;99.90;;;;;;5075009;28;20449;-77
2022/11/24 05:52:50;;;;;;;28.43;14.87;;;6.10;99.90;;;;;;5076945;28;20469;-77
2022/11/24 05:55:19;;;;;;;23.80;12.53;;;6.10;99.90;;;;;;5075009;28;20457;-77
2022/11/24 05:57:47;;;;;;;17.57;13.70;;;6.10;99.90;;;;;;5075621;28;20474;-77
2022/11/24 06:00:18;;;;;;;31.47;13.60;;;6.20;99.90;;;;;;5074979;28;20805;-77
2022/11/24 06:02:47;;;;;;;25.27;13.63;;;6.20;99.90;;;;;;5077894;28;20429;-77
2022/11/24 06:05:15;;;;;;;21.10;12.83;;;6.20;99.90;;;;;;5077989;28;20509;-77
2022/11/24 06:07:45;;;;;;;23.77;13.77;;;6.20;99.90;;;;;;5075380;28;21001;-77
2022/11/24 06:10:13;;;;;;;22.57;14.17;;;6.20;99.90;;;;;;5077896;28;20778;-78
2022/11/24 06:12:41;;;;;;;21.57;12.77;;;6.20;99.90;;;;;;5076698;28;20444;-78
2022/11/24 06:15:11;;;;;;;20.63;12.40;;;6.20;99.90;;;;;;5076287;28;20437;-77
2022/11/24 06:17:39;;;;;;;20.07;12.60;;;6.20;99.90;;;;;;5076445;28;20846;-78
2022/11/24 06:20:09;;;;;;;22.43;13.90;;;6.20;99.90;;;;;;5076425;28;20445;-77
2022/11/24 06:22:38;;;;;;;28.07;14.83;;;6.30;99.90;;;;;;5076391;28;20558;-78
2022/11/24 06:25:08;;;;;;;23.47;12.40;;;6.30;99.90;;;;;;5075215;28;20812;-77
2022/11/24 06:27:36;;;;;;;27.40;13.53;;;6.30;99.90;;;;;;5074458;28;20809;-77
2022/11/24 06:30:06;;;;;;;19.43;11.93;;;6.30;99.90;;;;;;5075514;28;20512;-77
2022/11/24 06:32:34;;;;;;;24.67;11.57;;;6.30;99.90;;;;;;5074394;28;20503;-78
2022/11/24 06:35:03;;;;;;;22.47;11.50;;;6.30;99.90;;;;;;5075747;28;20435;-78
2022/11/24 06:37:32;;;;;;;26.30;11.70;;;6.30;99.90;;;;;;5074049;28;20508;-77
2022/11/24 06:40:00;;;;;;;21.97;11.00;;;6.30;99.90;;;;;;5075776;28;20437;-77
2022/11/24 06:42:30;;;;;;;21.90;11.00;;;6.40;99.90;;;;;;5075431;28;20537;-78
2022/11/24 06:44:58;;;;;;;18.80;11.10;;;6.40;99.90;;;;;;5073950;28;20446;-78
2022/11/24 06:47:27;;;;;;;22.07;11.10;;;6.40;99.90;;;;;;5075125;28;20437;-78
2022/11/24 06:49:55;;;;;;;24.80;10.47;;;6.40;99.90;;;;;;5074945;28;20522;-77
2022/11/24 06:52:23;;;;;;;15.93;9.30;;;6.40;99.90;;;;;;5075434;28;20433;-77
2022/11/24 06:54:52;;;;;;;19.23;10.07;;;6.50;99.90;;;;;;5074962;28;20458;-78
2022/11/24 06:57:20;;;;;;;23.43;10.90;;;6.50;99.90;;;;;;5075013;28;20920;-78
2022/11/24 06:59:50;;;;;;;26.23;10.53;;;6.50;99.90;;;;;;5075067;28;20957;-78
2022/11/24 07:02:18;;;;;;;20.80;10.23;;;6.60;99.90;;;;;;5074721;28;20456;-77
2022/11/24 07:04:46;;;;;;;18.07;9.43;;;6.60;99.90;;;;;;5073753;28;20543;-77
2022/11/24 07:07:14;;;;;;;20.40;10.37;;;6.60;99.90;;;;;;5075156;28;20822;-77
2022/11/24 07:09:42;;;;;;;23.60;10.53;;;6.60;99.90;;;;;;5077177;28;20476;-77
2022/11/24 07:12:10;;;;;;;24.50;10.23;;;6.60;99.90;;;;;;5076309;28;20445;-77
2022/11/24 07:14:38;;;;;;;22.97;9.50;;;6.60;99.90;;;;;;5073842;28;20469;-78
2022/11/24 07:17:08;;;;;;;16.43;10.43;;;6.60;99.90;;;;;;5074834;28;20934;-77
2022/11/24 07:19:36;;;;;;;22.17;9.60;;;6.60;99.90;;;;;;5075568;28;20442;-77
2022/11/24 07:22:04;;;;;;;23.80;9.70;;;6.70;99.90;;;;;;5073271;28;20503;-77
2022/11/24 07:24:32;;;;;;;16.07;7.53;;;6.70;99.90;;;;;;5073210;28;20478;-78
2022/11/24 07:27:01;;;;;;;17.97;9.00;;;6.70;99.90;;;;;;5074433;28;20437;-77
2022/11/24 07:29:29;;;;;;;21.00;10.07;;;6.80;99.90;;;;;;5072986;28;20482;-77
2022/11/24 07:31:57;;;;;;;21.57;9.20;;;6.80;99.90;;;;;;5074219;28;20451;-77
2022/11/24 07:34:33;;;;;;;18.83;9.27;;;6.90;99.90;;;;;;5074690;28;20496;-77
2022/11/24 07:37:04;;;;;;;24.53;8.70;;;6.90;99.90;;;;;;5074410;28;20505;-77
2022/11/24 07:39:32;;;;;;;18.30;8.60;;;7.00;99.90;;;;;;5073067;28;20448;-77
2022/11/24 07:42:00;;;;;;;21.20;8.27;;;7.00;99.90;;;;;;5072846;28;20443;-77
2022/11/24 07:44:28;;;;;;;24.93;9.37;;;7.10;99.90;;;;;;5073896;28;20469;-77
2022/11/24 07:46:57;;;;;;;18.30;7.80;;;7.10;99.90;;;;;;5072601;28;20477;-77
2022/11/24 07:49:25;;;;;;;21.20;8.50;;;7.20;99.90;;;;;;5072620;28;20472;-77
2022/11/24 07:51:55;;;;;;;21.00;8.50;;;7.20;99.90;;;;;;5072729;28;20434;-77
2022/11/24 07:54:23;;;;;;;19.53;8.40;;;7.30;99.90;;;;;;5072820;28;20518;-77
2022/11/24 07:56:51;;;;;;;23.40;8.67;;;7.30;99.90;;;;;;5073791;28;20443;-77
2022/11/24 07:59:19;;;;;;;15.57;8.23;;;7.30;99.90;;;;;;5072726;28;20520;-77
2022/11/24 08:01:47;;;;;;;14.30;7.07;;;7.40;99.90;;;;;;5072765;28;20449;-77
2022/11/24 08:04:15;;;;;;;19.17;7.77;;;7.40;99.90;;;;;;5072547;28;20514;-77
2022/11/24 08:06:43;;;;;;;19.80;8.20;;;7.40;99.90;;;;;;5073757;28;20533;-76
2022/11/24 08:09:16;;;;;;;20.83;8.47;;;7.40;99.90;;;;;;5073918;28;20466;-77
2022/11/24 08:11:44;;;;;;;15.33;7.90;;;7.40;99.90;;;;;;5073978;28;20435;-77
2022/11/24 08:14:12;;;;;;;20.93;7.83;;;7.50;99.90;;;;;;5074029;28;21016;-77
2022/11/24 08:16:40;;;;;;;24.43;8.10;;;7.50;99.90;;;;;;5072507;28;20475;-77
2022/11/24 08:19:10;;;;;;;23.97;8.50;;;7.50;99.90;;;;;;5072120;28;20455;-77
2022/11/24 08:21:39;;;;;;;25.83;8.47;;;7.60;99.90;;;;;;5073376;28;20417;-77
2022/11/24 08:24:08;;;;;;;15.47;7.50;;;7.60;99.90;;;;;;5072010;28;20471;-77
2022/11/24 08:26:37;;;;;;;15.70;7.77;;;7.60;99.90;;;;;;5073416;28;20441;-77
2022/11/24 08:29:06;;;;;;;25.13;8.53;;;7.70;99.90;;;;;;5073349;28;20448;-78
2022/11/24 08:31:34;;;;;;;20.80;8.90;;;7.70;99.90;;;;;;5073173;28;20446;-77
2022/11/24 08:34:03;;;;;;;19.10;8.10;;;7.80;99.90;;;;;;5071996;28;20468;-77
2022/11/24 08:36:32;;;;;;;17.23;8.23;;;7.80;99.90;;;;;;5073573;28;20804;-78
2022/11/24 08:39:01;;;;;;;22.63;7.77;;;7.90;99.90;;;;;;5073272;28;20440;-78
2022/11/24 08:41:30;;;;;;;21.33;7.73;;;7.90;99.90;;;;;;5072086;28;20544;-78
2022/11/24 08:43:59;;;;;;;18.27;8.57;;;8.00;99.90;;;;;;5071964;28;20482;-77
2022/11/24 08:46:28;;;;;;;18.50;7.83;;;8.00;99.90;;;;;;5071838;28;20456;-77
2022/11/24 08:48:56;;;;;;;20.63;8.50;;;8.10;99.90;;;;;;5071927;28;20464;-78
2022/11/24 08:51:26;;;;;;;15.97;7.37;;;8.10;99.90;;;;;;5073279;28;20864;-78
2022/11/24 08:53:55;;;;;;;19.50;7.47;;;8.20;99.90;;;;;;5071856;28;20547;-78
2022/11/24 08:56:24;;;;;;;25.80;8.10;;;8.20;99.90;;;;;;5073705;28;20437;-78
2022/11/24 08:58:53;;;;;;;20.30;7.13;;;8.30;99.90;;;;;;5071881;28;20455;-78
2022/11/24 09:01:23;;;;;;;18.97;7.37;;;8.30;99.90;;;;;;5071925;28;20437;-78
2022/11/24 09:03:51;;;;;;;14.70;6.33;;;8.30;99.90;;;;;;5073060;28;20974;-76
2022/11/24 09:06:22;;;;;;;21.10;7.13;;;8.30;99.90;;;;;;5073265;28;20443;-78
2022/11/24 09:08:53;;;;;;;16.47;7.10;;;8.40;99.90;;;;;;5073336;28;20460;-77
2022/11/24 09:11:21;;;;;;;16.83;6.33;;;8.40;99.90;;;;;;5071825;28;20480;-77
2022/11/24 09:13:50;;;;;;;17.93;7.13;;;8.50;99.90;;;;;;5071923;28;20467;-77
2022/11/24 09:16:20;;;;;;;20.37;6.83;;;8.50;99.90;;;;;;5072973;28;20484;-78
2022/11/24 09:18:55;;;;;;;21.13;7.43;;;8.60;99.90;;;;;;5073338;28;20432;-78
2022/11/24 09:21:23;;;;;;;14.83;6.57;;;8.60;99.90;;;;;;5071749;28;20433;-77
2022/11/24 09:23:54;;;;;;;19.03;6.30;;;8.70;99.90;;;;;;5071857;28;20476;-78
2022/11/24 09:26:24;;;;;;;18.80;6.53;;;8.70;99.90;;;;;;5077373;28;20851;-77
2022/11/24 09:28:54;;;;;;;18.87;6.60;;;8.70;99.90;;;;;;5074276;28;20441;-77
2022/11/24 09:31:24;;;;;;;16.00;6.30;;;8.80;99.90;;;;;;5072336;28;20507;-77
2022/11/24 09:33:55;;;;;;;17.27;6.90;;;8.80;99.90;;;;;;5073590;28;20469;-77
2022/11/24 09:36:24;;;;;;;13.73;5.30;;;8.80;99.90;;;;;;5077464;28;20452;-77
2022/11/24 09:38:53;;;;;;;13.20;6.03;;;8.80;99.90;;;;;;5076209;28;20457;-77
2022/11/24 09:41:39;;;;;;;17.03;6.40;;;8.80;99.90;;;;;;5076977;28;20556;-77
2022/11/24 09:44:35;;;;;;;20.03;6.80;;;8.80;99.90;;;;;;5077471;28;20559;-77
2022/11/24 09:47:16;;;;;;;17.27;7.00;;;8.80;99.90;;;;;;5077278;28;20471;-77
2022/11/24 09:49:53;;;;;;;16.67;6.63;;;8.90;99.90;;;;;;5077407;28;20440;-77
2022/11/24 09:52:37;;;;;;;16.27;6.40;;;8.90;99.90;;;;;;5075815;28;20532;-77
2022/11/24 09:55:18;;;;;;;16.37;6.50;;;8.90;99.90;;;;;;5075926;28;20456;-77
2022/11/24 09:57:54;;;;;;;15.53;6.90;;;8.90;99.90;;;;;;5077617;28;20439;-77
2022/11/24 10:00:25;;;;;;;15.93;6.03;;;8.90;99.90;;;;;;5077427;28;20429;-77
2022/11/24 10:02:53;;;;;;;16.73;7.23;;;8.90;99.90;;;;;;5075770;28;20545;-78
2022/11/24 10:05:28;;;;;;;18.47;7.23;;;8.90;99.90;;;;;;5075787;28;20456;-78
2022/11/24 10:08:10;;;;;;;19.23;7.67;;;8.90;99.90;;;;;;5075516;28;20437;-78
2022/11/24 10:10:49;;;;;;;15.53;6.70;;;9.00;99.90;;;;;;5075205;28;20826;-77
2022/11/24 10:13:32;;;;;;;19.80;6.60;;;9.00;99.90;;;;;;5075420;28;20505;-77
2022/11/24 10:16:06;;;;;;;15.43;6.93;;;9.00;99.90;;;;;;5076941;28;20949;-77
2022/11/24 10:18:44;;;;;;;14.40;6.40;;;9.10;99.90;;;;;;5076001;28;20507;-77
2022/11/24 10:21:47;;;;;;;17.23;7.07;;;9.10;99.90;;;;;;5075955;28;20473;-77
2022/11/24 10:24:33;;;;;;;23.40;7.00;;;9.10;99.90;;;;;;5069291;28;20473;-77
2022/11/24 10:27:03;;;;;;;12.80;6.50;;;9.10;99.90;;;;;;5075590;28;20536;-77
2022/11/24 10:29:36;;;;;;;11.83;6.23;;;9.10;99.90;;;;;;5075224;28;20511;-77
2022/11/24 10:32:11;;;;;;;15.20;6.20;;;9.10;99.90;;;;;;5075368;28;20567;-77
2022/11/24 10:34:43;;;;;;;14.90;6.97;;;9.10;99.90;;;;;;5076811;28;20462;-77
2022/11/24 10:37:18;;;;;;;15.97;7.20;;;9.20;99.90;;;;;;5075036;28;20467;-77
2022/11/24 10:39:56;;;;;;;12.47;6.33;;;9.20;99.90;;;;;;5075828;28;20417;-77
2022/11/24 10:42:30;;;;;;;17.80;7.73;;;9.20;99.90;;;;;;5076705;28;20424;-77
2022/11/24 10:45:01;;;;;;;14.23;7.40;;;9.30;99.90;;;;;;5074140;28;20560;-77
2022/11/24 10:47:30;;;;;;;15.73;6.70;;;9.30;99.90;;;;;;5076687;28;20472;-77
2022/11/24 10:50:02;;;;;;;17.90;7.47;;;9.30;99.90;;;;;;5074887;28;20449;-77
2022/11/24 10:52:40;;;;;;;19.00;8.00;;;9.40;99.90;;;;;;5076129;28;20429;-77
2022/11/24 10:55:09;;;;;;;14.50;7.50;;;9.40;99.90;;;;;;5078070;28;20852;-77
2022/11/24 10:57:39;;;;;;;13.67;7.50;;;9.40;99.90;;;;;;5075793;28;20560;-77
2022/11/24 11:00:33;;;;;;;20.20;8.00;;;9.50;99.90;;;;;;5075132;28;20444;-77
2022/11/24 11:03:23;;;;;;;18.07;8.80;;;9.50;99.90;;;;;;5076641;28;20495;-77
2022/11/24 11:05:53;;;;;;;16.27;7.17;;;9.50;99.90;;;;;;5075801;28;20418;-77
2022/11/24 11:08:27;;;;;;;17.97;7.60;;;9.50;99.90;;;;;;5076966;28;20426;-77
2022/11/24 11:11:20;;;;;;;16.47;7.30;;;9.60;99.90;;;;;;5075720;28;20453;-78
2022/11/24 11:13:53;;;;;;;11.20;7.30;;;9.60;99.90;;;;;;5074925;28;21043;-77
2022/11/24 11:16:35;;;;;;;17.23;7.17;;;9.60;99.90;;;;;;5075009;28;20437;-77
2022/11/24 11:19:05;;;;;;;11.47;7.30;;;9.70;99.90;;;;;;5074684;28;20438;-77
2022/11/24 11:22:01;;;;;;;17.23;8.37;;;9.70;99.90;;;;;;5074952;28;20448;-77
2022/11/24 11:24:30;;;;;;;15.53;7.83;;;9.70;99.90;;;;;;5074376;28;20542;-77
2022/11/24 11:27:04;;;;;;;15.07;7.90;;;9.80;99.90;;;;;;5074614;28;20453;-77
2022/11/24 11:29:32;;;;;;;18.73;8.10;;;9.80;99.90;;;;;;5076503;28;20418;-77
2022/11/24 11:32:21;;;;;;;13.73;7.33;;;9.80;99.90;;;;;;5075021;28;20465;-77
2022/11/24 11:35:12;;;;;;;16.90;8.10;;;9.80;99.90;;;;;;5073862;28;20486;-77
2022/11/24 11:37:41;;;;;;;17.57;7.87;;;9.90;99.90;;;;;;5074735;28;20793;-77
2022/11/24 11:40:16;;;;;;;15.83;7.93;;;9.90;99.90;;;;;;5075216;28;20437;-77
2022/11/24 11:42:49;;;;;;;14.47;7.87;;;9.90;99.90;;;;;;5073573;28;20448;-77
2022/11/24 11:45:35;;;;;;;15.10;8.00;;;9.90;99.90;;;;;;5074305;28;20445;-77
2022/11/24 11:48:22;;;;;;;13.00;7.70;;;9.90;99.90;;;;;;5074025;28;20477;-77
2022/11/24 11:50:53;;;;;;;15.40;7.30;;;10.00;99.90;;;;;;5073509;28;21107;-77
2022/11/24 11:53:47;;;;;;;19.87;8.07;;;10.00;99.90;;;;;;5075376;28;20872;-77
2022/11/24 11:56:24;;;;;;;16.20;7.80;;;10.00;99.90;;;;;;5074754;28;20422;-77
2022/11/24 11:59:24;;;;;;;13.10;8.30;;;10.00;99.90;;;;;;5076078;28;20441;-77
2022/11/24 12:02:39;;;;;;;12.07;8.00;;;10.00;99.90;;;;;;5075096;28;20437;-77
2022/11/24 12:05:19;;;;;;;13.03;8.37;;;10.00;99.90;;;;;;5034903;28;20446;-78
2022/11/24 12:08:07;;;;;;;14.30;8.07;;;10.00;99.90;;;;;;5070405;28;20814;-78
2022/11/24 12:10:45;;;;;;;17.07;9.40;;;10.00;99.90;;;;;;5072250;28;20507;-78
2022/11/24 12:13:44;;;;;;;11.43;8.50;;;10.00;99.90;;;;;;5072274;28;20472;-78
2022/11/24 12:16:28;;;;;;;11.00;7.90;;;10.00;99.90;;;;;;5073862;28;20448;-78
2022/11/24 12:19:10;;;;;;;13.27;8.23;;;10.00;99.90;;;;;;5072258;28;20905;-77
2022/11/24 12:21:46;;;;;;;13.50;9.00;;;10.00;99.90;;;;;;5072204;28;20448;-77
2022/11/24 12:24:22;;;;;;;13.23;10.40;;;10.00;99.90;;;;;;5073662;28;20816;-77
2022/11/24 12:26:55;;;;;;;11.80;9.00;;;10.00;99.90;;;;;;5072119;28;20429;-77
2022/11/24 12:29:58;;;;;;;13.73;9.50;;;10.10;99.90;;;;;;5072239;28;20445;-77
2022/11/24 12:32:45;;;;;;;15.40;9.90;;;10.10;99.90;;;;;;5057964;28;20465;-78
2022/11/24 12:35:21;;;;;;;15.47;8.80;;;10.10;99.90;;;;;;5072260;28;20879;-77
2022/11/24 12:38:02;;;;;;;13.03;7.03;;;10.20;99.90;;;;;;5073746;28;20457;-78
2022/11/24 12:40:41;;;;;;;13.23;8.20;;;10.20;99.90;;;;;;5072080;28;20445;-78
2022/11/24 12:43:22;;;;;;;15.83;7.03;;;10.20;99.90;;;;;;5071936;28;20461;-77
2022/11/24 12:45:59;;;;;;;11.50;6.63;;;10.20;99.90;;;;;;5072640;28;20543;-78
2022/11/24 12:48:50;;;;;;;17.43;8.80;;;10.20;99.90;;;;;;5073705;28;20425;-78
2022/11/24 12:51:24;;;;;;;10.97;7.17;;;10.20;99.90;;;;;;5071965;28;20594;-78
2022/11/24 12:53:53;;;;;;;10.13;6.87;;;10.20;99.90;;;;;;5071939;28;20465;-77
2022/11/24 12:56:27;;;;;;;11.03;6.80;;;10.20;99.90;;;;;;5073124;28;20768;-78
2022/11/24 12:59:09;;;;;;;10.60;6.63;;;10.20;99.90;;;;;;5071903;28;20440;-78
2022/11/24 13:01:50;;;;;;;9.97;7.33;;;10.20;99.90;;;;;;5073700;28;20436;-78
2022/11/24 13:04:32;;;;;;;12.83;6.40;;;10.20;99.90;;;;;;5073285;28;21058;-78